Time;durP1;ratioP1;P1;durP2;ratioP2;P2;SDS_P1;SDS_P2;PMS_P1;PMS_P2;Temp;Humidity;BMP_temperature;BMP_pressure;BME280_temperature;BME280_humidity;BME280_pressure;Samples;Min_cycle;Max_cycle;Signal;HPM_P1;HPM_P2
2023/05/01 00:00:11;;;;;;;5.18;2.90;;;15.30;99.90;;;;;;5131459;27;20597;-68
2023/05/01 00:02:37;;;;;;;3.90;2.33;;;15.30;99.90;;;;;;5133424;27;20098;-68
2023/05/01 00:05:03;;;;;;;6.65;2.50;;;15.20;99.90;;;;;;5132731;27;20102;-68
2023/05/01 00:07:29;;;;;;;6.95;2.50;;;15.20;99.90;;;;;;5131256;27;20031;-68
2023/05/01 00:09:56;;;;;;;3.63;2.22;;;15.10;99.90;;;;;;5130915;28;20108;-68
2023/05/01 00:12:21;;;;;;;2.55;2.28;;;15.10;99.90;;;;;;5133520;27;20535;-68
2023/05/01 00:14:47;;;;;;;4.65;2.70;;;15.20;99.90;;;;;;5136139;27;20060;-69
2023/05/01 00:17:13;;;;;;;5.32;2.90;;;15.20;99.90;;;;;;5137575;27;20028;-68
2023/05/01 00:19:39;;;;;;;4.93;2.75;;;15.10;99.90;;;;;;5136332;27;20387;-68
2023/05/01 00:22:05;;;;;;;6.25;3.00;;;15.10;99.90;;;;;;5137428;27;20019;-68
2023/05/01 00:24:31;;;;;;;5.22;2.78;;;15.10;99.90;;;;;;5136368;27;20023;-68
2023/05/01 00:26:57;;;;;;;6.75;2.75;;;15.10;99.90;;;;;;5135020;27;20081;-68
2023/05/01 00:29:23;;;;;;;7.03;3.72;;;15.10;99.90;;;;;;5134256;27;20044;-68
2023/05/01 00:31:50;;;;;;;4.55;3.33;;;15.10;99.90;;;;;;5135851;27;20035;-68
2023/05/01 00:34:16;;;;;;;8.85;4.30;;;15.10;99.90;;;;;;5134937;27;20023;-67
2023/05/01 00:36:43;;;;;;;6.07;4.35;;;15.00;99.90;;;;;;5135283;27;20027;-68
2023/05/01 00:39:09;;;;;;;10.63;4.00;;;15.10;99.90;;;;;;5136313;27;20227;-68
2023/05/01 00:41:35;;;;;;;5.60;3.35;;;15.00;99.90;;;;;;5134539;27;20110;-68
2023/05/01 00:44:01;;;;;;;8.25;3.53;;;15.00;99.90;;;;;;5134709;27;20049;-69
2023/05/01 00:46:28;;;;;;;5.70;3.60;;;14.90;99.90;;;;;;5135930;27;20456;-68
2023/05/01 00:48:57;;;;;;;4.78;3.53;;;15.00;99.90;;;;;;5136836;27;20026;-68
2023/05/01 00:51:26;;;;;;;5.60;3.67;;;15.00;99.90;;;;;;5135450;27;20037;-69
2023/05/01 00:53:52;;;;;;;5.13;3.50;;;14.90;99.90;;;;;;5136375;27;20023;-68
2023/05/01 00:56:18;;;;;;;4.15;3.65;;;14.90;99.90;;;;;;5134090;27;20087;-68
2023/05/01 00:58:48;;;;;;;7.10;3.92;;;14.90;99.90;;;;;;5136058;27;20467;-69
2023/05/01 01:01:15;;;;;;;8.00;4.00;;;15.00;99.90;;;;;;5136510;27;20015;-68
2023/05/01 01:03:40;;;;;;;7.68;3.67;;;15.00;99.90;;;;;;5136617;27;20030;-68
2023/05/01 01:06:15;;;;;;;8.70;3.72;;;14.80;99.90;;;;;;5135837;27;20766;-68
2023/05/01 01:09:22;;;;;;;5.60;4.22;;;14.80;99.90;;;;;;5135502;27;20019;-68
2023/05/01 01:12:06;;;;;;;6.35;4.70;;;14.70;99.90;;;;;;5134751;27;20387;-68
2023/05/01 01:14:41;;;;;;;8.95;4.40;;;14.70;99.90;;;;;;5136271;27;20042;-68
2023/05/01 01:17:28;;;;;;;4.32;3.60;;;14.70;99.90;;;;;;5135787;27;20023;-68
2023/05/01 01:20:06;;;;;;;7.78;4.50;;;14.70;99.90;;;;;;5135393;27;20023;-68
2023/05/01 01:22:35;;;;;;;4.20;3.80;;;14.70;99.90;;;;;;5134153;27;20019;-68
2023/05/01 01:25:35;;;;;;;6.70;3.83;;;14.70;99.90;;;;;;5136300;27;20127;-69
2023/05/01 01:28:31;;;;;;;4.32;3.92;;;14.70;99.90;;;;;;5136328;27;20482;-69
2023/05/01 01:31:12;;;;;;;5.82;3.97;;;14.70;99.90;;;;;;5135419;27;20023;-68
2023/05/01 01:33:55;;;;;;;7.00;3.97;;;14.50;99.90;;;;;;5135561;27;20106;-68
2023/05/01 01:36:58;;;;;;;8.45;4.22;;;14.50;99.90;;;;;;5134348;27;20040;-68
2023/05/01 01:39:37;;;;;;;9.73;4.88;;;14.40;99.90;;;;;;5133991;27;20038;-69
2023/05/01 01:42:09;;;;;;;8.05;3.78;;;14.50;99.90;;;;;;5135560;27;20051;-68
2023/05/01 01:44:58;;;;;;;6.38;3.80;;;14.50;99.90;;;;;;5135189;27;20030;-68
2023/05/01 01:47:30;;;;;;;6.32;4.00;;;14.30;99.90;;;;;;5135549;27;20030;-68
2023/05/01 01:50:00;;;;;;;6.95;3.88;;;14.20;99.90;;;;;;5134977;27;20481;-67
2023/05/01 01:52:28;;;;;;;6.15;3.42;;;14.10;99.90;;;;;;5135262;27;20472;-68
2023/05/01 01:54:59;;;;;;;7.03;3.70;;;14.10;99.90;;;;;;5135627;27;20019;-68
2023/05/01 01:57:27;;;;;;;6.55;3.50;;;13.90;99.90;;;;;;5135609;27;20148;-67
2023/05/01 01:59:54;;;;;;;10.05;4.40;;;13.90;99.90;;;;;;5135146;27;20027;-68
2023/05/01 02:02:21;;;;;;;5.22;3.92;;;13.80;99.90;;;;;;5133842;27;20031;-68
2023/05/01 02:04:52;;;;;;;7.38;3.60;;;13.80;99.90;;;;;;5135337;27;20344;-69
2023/05/01 02:07:19;;;;;;;5.55;3.20;;;13.70;99.90;;;;;;5135173;27;20019;-68
2023/05/01 02:09:47;;;;;;;6.55;3.83;;;13.70;99.90;;;;;;5134485;27;20042;-68
2023/05/01 02:12:15;;;;;;;5.45;3.85;;;13.80;99.90;;;;;;5135385;27;20043;-68
2023/05/01 02:14:43;;;;;;;7.63;4.63;;;13.80;99.90;;;;;;5135332;27;20027;-68
2023/05/01 02:17:09;;;;;;;7.38;4.07;;;13.80;99.90;;;;;;5135442;27;20080;-69
2023/05/01 02:19:39;;;;;;;7.07;3.42;;;13.80;99.90;;;;;;5133849;27;20030;-68
2023/05/01 02:22:05;;;;;;;5.82;3.28;;;13.70;99.90;;;;;;5135670;27;20114;-68
2023/05/01 02:24:33;;;;;;;5.82;3.58;;;13.70;99.90;;;;;;5134814;27;20084;-68
2023/05/01 02:27:18;;;;;;;8.32;4.20;;;13.60;99.90;;;;;;5133823;27;20023;-68
2023/05/01 02:29:44;;;;;;;6.90;4.47;;;13.60;99.90;;;;;;5132730;27;20015;-68
2023/05/01 02:32:11;;;;;;;6.35;4.50;;;13.60;99.90;;;;;;5134285;27;20110;-68
2023/05/01 02:34:37;;;;;;;8.10;4.38;;;13.50;99.90;;;;;;5133194;27;20029;-68
2023/05/01 02:37:06;;;;;;;8.10;4.60;;;13.50;99.90;;;;;;5134151;27;20098;-68
2023/05/01 02:39:33;;;;;;;8.20;4.25;;;13.50;99.90;;;;;;5134730;27;20131;-69
2023/05/01 02:42:02;;;;;;;11.25;4.10;;;13.50;99.90;;;;;;5132136;27;20034;-68
2023/05/01 02:44:29;;;;;;;11.60;3.53;;;13.60;99.90;;;;;;5113485;28;20085;-68
2023/05/01 02:46:57;;;;;;;6.60;4.10;;;13.40;99.90;;;;;;5112671;28;20015;-69
2023/05/01 02:49:23;;;;;;;7.70;4.00;;;13.40;99.90;;;;;;5112819;28;20049;-68
2023/05/01 02:51:50;;;;;;;7.22;4.90;;;13.40;99.90;;;;;;5113893;28;20118;-68
2023/05/01 02:54:16;;;;;;;9.05;4.85;;;13.40;99.90;;;;;;5113048;28;20110;-68
2023/05/01 02:56:42;;;;;;;8.60;4.35;;;13.40;99.90;;;;;;5113806;28;20073;-69
2023/05/01 02:59:07;;;;;;;8.52;4.03;;;13.40;99.90;;;;;;5113768;28;20031;-68
2023/05/01 03:01:33;;;;;;;7.13;4.15;;;13.40;99.90;;;;;;5113791;28;20080;-69
2023/05/01 03:03:59;;;;;;;5.93;3.60;;;13.40;99.90;;;;;;5120579;27;20437;-68
2023/05/01 03:06:27;;;;;;;13.85;5.13;;;13.40;99.90;;;;;;5130793;27;20577;-69
2023/05/01 03:08:53;;;;;;;7.45;5.05;;;13.40;99.90;;;;;;5113817;27;20073;-69
2023/05/01 03:11:20;;;;;;;7.78;4.47;;;13.40;99.90;;;;;;5112554;28;20645;-69
2023/05/01 03:13:46;;;;;;;6.78;3.90;;;13.40;99.90;;;;;;5112596;28;20055;-68
2023/05/01 03:16:12;;;;;;;10.95;4.50;;;13.50;99.90;;;;;;5112967;28;20084;-69
2023/05/01 03:18:37;;;;;;;11.35;4.35;;;13.50;99.90;;;;;;5113117;28;20066;-69
2023/05/01 03:21:03;;;;;;;6.93;4.70;;;13.50;99.90;;;;;;5112484;28;20103;-69
2023/05/01 03:23:29;;;;;;;8.65;5.07;;;13.50;99.90;;;;;;5113420;28;20039;-68
2023/05/01 03:25:56;;;;;;;10.20;5.25;;;13.50;99.90;;;;;;5112608;28;20023;-69
2023/05/01 03:28:22;;;;;;;10.07;5.22;;;13.50;99.90;;;;;;5112549;28;20110;-68
2023/05/01 03:30:50;;;;;;;7.68;5.20;;;13.50;99.90;;;;;;5124153;27;20379;-68
2023/05/01 03:33:16;;;;;;;9.68;4.60;;;13.40;99.90;;;;;;5133192;27;20038;-68
2023/05/01 03:35:42;;;;;;;7.70;5.28;;;13.40;99.90;;;;;;5132228;27;20023;-68
2023/05/01 03:38:07;;;;;;;7.72;4.70;;;13.40;99.90;;;;;;5133765;27;20444;-69
2023/05/01 03:40:33;;;;;;;7.20;4.70;;;13.30;99.90;;;;;;5133487;27;20023;-68
2023/05/01 03:42:59;;;;;;;8.57;5.18;;;13.30;99.90;;;;;;5133236;27;20037;-69
2023/05/01 03:45:24;;;;;;;9.93;5.20;;;13.30;99.90;;;;;;5132976;27;20023;-68
2023/05/01 03:47:51;;;;;;;6.13;4.35;;;13.40;99.90;;;;;;5132654;27;20036;-68
2023/05/01 03:50:16;;;;;;;7.97;4.97;;;13.30;99.90;;;;;;5132211;27;20031;-68
2023/05/01 03:52:42;;;;;;;6.20;4.53;;;13.40;99.90;;;;;;5132803;27;20035;-69
2023/05/01 03:55:08;;;;;;;9.65;4.78;;;13.40;99.90;;;;;;5133325;27;20023;-69
2023/05/01 03:57:33;;;;;;;7.28;4.63;;;13.30;99.90;;;;;;5133032;27;20352;-68
2023/05/01 03:59:59;;;;;;;6.97;4.72;;;13.40;99.90;;;;;;5133441;27;20467;-68
2023/05/01 04:02:26;;;;;;;10.18;4.90;;;13.40;99.90;;;;;;5133302;27;20023;-69
2023/05/01 04:04:52;;;;;;;7.43;4.40;;;13.40;99.90;;;;;;5133043;27;20027;-68
2023/05/01 04:07:17;;;;;;;10.23;4.90;;;13.50;99.90;;;;;;5132823;27;20027;-69
2023/05/01 04:09:43;;;;;;;9.32;5.18;;;13.50;99.90;;;;;;5132379;27;20442;-68
2023/05/01 04:12:09;;;;;;;9.70;5.35;;;13.50;99.90;;;;;;5120600;27;20064;-68
2023/05/01 04:14:34;;;;;;;7.90;5.10;;;13.50;99.90;;;;;;5120509;28;20085;-68
2023/05/01 04:17:00;;;;;;;11.10;5.50;;;13.50;99.90;;;;;;5132138;27;20031;-69
2023/05/01 04:19:26;;;;;;;5.78;4.85;;;13.50;99.90;;;;;;5115209;27;20491;-68
2023/05/01 04:21:53;;;;;;;8.35;4.85;;;13.60;99.90;;;;;;5112163;28;20031;-68
2023/05/01 04:24:18;;;;;;;10.00;5.43;;;13.50;99.90;;;;;;5123875;28;20016;-68
2023/05/01 04:26:44;;;;;;;7.13;5.38;;;13.50;99.90;;;;;;5132885;27;20139;-68
2023/05/01 04:29:10;;;;;;;9.48;6.22;;;13.50;99.90;;;;;;5132974;27;20379;-69
2023/05/01 04:31:36;;;;;;;6.60;5.25;;;13.20;99.90;;;;;;5130593;28;20159;-68
2023/05/01 04:34:01;;;;;;;10.85;5.35;;;12.90;99.90;;;;;;5133299;27;20088;-69
2023/05/01 04:36:28;;;;;;;18.50;6.43;;;12.90;99.90;;;;;;5132690;27;20094;-68
2023/05/01 04:38:54;;;;;;;8.38;5.53;;;13.00;99.90;;;;;;5133183;27;20107;-69
2023/05/01 04:41:20;;;;;;;10.73;6.03;;;12.80;99.90;;;;;;5132410;27;20110;-68
2023/05/01 04:43:46;;;;;;;11.23;5.63;;;13.00;99.90;;;;;;5132868;27;20427;-68
2023/05/01 04:46:11;;;;;;;14.75;5.82;;;12.80;99.90;;;;;;5131008;27;20098;-68
2023/05/01 04:48:37;;;;;;;8.52;5.85;;;13.00;99.90;;;;;;5132295;27;20485;-68
2023/05/01 04:51:03;;;;;;;8.25;5.47;;;13.00;99.90;;;;;;5133112;27;20058;-68
2023/05/01 04:53:28;;;;;;;11.63;6.03;;;13.10;99.90;;;;;;5132835;27;20440;-68
2023/05/01 04:55:54;;;;;;;9.90;5.97;;;13.10;99.90;;;;;;5133038;27;20142;-69
2023/05/01 04:58:20;;;;;;;10.40;5.95;;;13.20;99.90;;;;;;5135075;27;20027;-68
2023/05/01 05:00:46;;;;;;;6.45;5.40;;;13.10;99.90;;;;;;5135127;27;20508;-68
2023/05/01 05:03:11;;;;;;;9.32;6.10;;;13.20;99.90;;;;;;5136203;27;20045;-68
2023/05/01 05:05:37;;;;;;;10.00;6.47;;;13.20;99.90;;;;;;5136083;27;20031;-69
2023/05/01 05:08:03;;;;;;;8.20;5.75;;;13.20;99.90;;;;;;5136628;27;20456;-69
2023/05/01 05:10:28;;;;;;;11.48;5.75;;;13.20;99.90;;;;;;5136029;27;20355;-69
2023/05/01 05:12:54;;;;;;;10.55;6.05;;;13.30;99.90;;;;;;5135912;27;20039;-69
2023/05/01 05:15:20;;;;;;;10.23;4.85;;;13.10;99.90;;;;;;5134778;27;20027;-68
2023/05/01 05:17:46;;;;;;;12.93;6.00;;;13.20;99.90;;;;;;5135845;27;20027;-68
2023/05/01 05:20:11;;;;;;;7.22;6.03;;;13.30;99.90;;;;;;5136376;27;20019;-69
2023/05/01 05:22:37;;;;;;;10.85;5.57;;;13.40;99.90;;;;;;5135531;27;20034;-68
2023/05/01 05:25:05;;;;;;;12.35;6.05;;;13.40;99.90;;;;;;5136356;27;20023;-68
2023/05/01 05:27:36;;;;;;;9.23;6.53;;;13.50;99.90;;;;;;5134375;27;20110;-68
2023/05/01 05:30:04;;;;;;;9.55;6.70;;;13.60;99.90;;;;;;5136100;27;20011;-69
2023/05/01 05:32:30;;;;;;;14.80;7.15;;;13.50;99.90;;;;;;5135941;27;20031;-68
2023/05/01 05:34:56;;;;;;;9.48;6.25;;;13.40;99.90;;;;;;5136239;27;20015;-69
2023/05/01 05:37:24;;;;;;;9.75;6.35;;;13.30;99.90;;;;;;5135863;27;20106;-69
2023/05/01 05:39:51;;;;;;;10.63;6.20;;;13.40;99.90;;;;;;5135215;27;20024;-68
2023/05/01 05:42:16;;;;;;;9.63;6.72;;;13.50;99.90;;;;;;5133906;27;20027;-68
2023/05/01 05:44:42;;;;;;;9.27;6.70;;;13.60;99.90;;;;;;5135545;27;20042;-68
2023/05/01 05:47:08;;;;;;;9.48;6.35;;;13.60;99.90;;;;;;5135918;27;20031;-68
2023/05/01 05:49:33;;;;;;;11.63;6.55;;;13.70;99.90;;;;;;5134921;27;20059;-68
2023/05/01 05:51:59;;;;;;;10.15;6.93;;;13.70;99.90;;;;;;5135839;27;20490;-68
2023/05/01 05:54:25;;;;;;;8.98;6.45;;;13.80;99.90;;;;;;5134576;27;20031;-68
2023/05/01 05:56:50;;;;;;;10.25;6.47;;;13.80;99.90;;;;;;5134971;27;20024;-68
2023/05/01 05:59:17;;;;;;;11.75;6.78;;;13.90;99.90;;;;;;5133418;27;20488;-69
2023/05/01 06:01:43;;;;;;;10.40;6.55;;;13.90;99.90;;;;;;5135155;27;20019;-69
2023/05/01 06:04:10;;;;;;;10.60;7.05;;;14.00;99.90;;;;;;5134680;27;20012;-69
2023/05/01 06:06:36;;;;;;;9.60;6.90;;;14.00;99.90;;;;;;5134078;27;20523;-69
2023/05/01 06:09:02;;;;;;;10.93;7.40;;;13.90;99.90;;;;;;5131941;27;20102;-68
2023/05/01 06:11:28;;;;;;;12.68;7.03;;;13.90;99.90;;;;;;5133426;27;20027;-69
2023/05/01 06:13:54;;;;;;;9.05;6.60;;;14.00;99.90;;;;;;5134855;27;20081;-69
2023/05/01 06:16:19;;;;;;;10.68;7.00;;;14.10;99.90;;;;;;5135386;27;20027;-69
2023/05/01 06:18:45;;;;;;;12.30;7.32;;;14.00;99.90;;;;;;5134586;27;20511;-69
2023/05/01 06:21:11;;;;;;;9.10;7.63;;;14.10;99.90;;;;;;5134954;27;20024;-69
2023/05/01 06:23:37;;;;;;;10.85;6.68;;;14.10;99.90;;;;;;5135106;27;20455;-69
2023/05/01 06:26:03;;;;;;;9.10;6.95;;;14.10;99.90;;;;;;5134034;27;20083;-69
2023/05/01 06:28:28;;;;;;;13.38;8.43;;;14.20;99.90;;;;;;5134328;27;20050;-69
2023/05/01 06:30:54;;;;;;;14.30;7.00;;;14.20;99.90;;;;;;5134541;27;20035;-69
2023/05/01 06:33:20;;;;;;;10.30;7.18;;;14.20;99.90;;;;;;5134740;27;20518;-68
2023/05/01 06:35:47;;;;;;;11.15;7.63;;;14.20;99.90;;;;;;5134235;27;20030;-69
2023/05/01 06:38:12;;;;;;;13.38;7.55;;;14.30;99.90;;;;;;5133230;27;20065;-68
2023/05/01 06:40:39;;;;;;;10.88;7.65;;;14.30;99.90;;;;;;5134517;27;20073;-68
2023/05/01 06:43:05;;;;;;;15.88;9.27;;;14.30;99.90;;;;;;5134009;27;20027;-68
2023/05/01 06:45:31;;;;;;;13.27;7.97;;;14.40;99.90;;;;;;5134081;27;20083;-68
2023/05/01 06:47:56;;;;;;;13.95;7.97;;;14.40;99.90;;;;;;5133874;27;20023;-68
2023/05/01 06:50:22;;;;;;;11.13;7.82;;;14.50;99.90;;;;;;5128455;27;20054;-69
2023/05/01 06:52:48;;;;;;;10.18;7.03;;;14.50;99.90;;;;;;5129850;27;20553;-68
2023/05/01 06:55:14;;;;;;;9.27;7.32;;;14.60;99.90;;;;;;5133778;27;20023;-69
2023/05/01 06:57:40;;;;;;;9.85;7.47;;;14.50;99.90;;;;;;5132990;27;20020;-68
2023/05/01 07:00:06;;;;;;;11.40;7.65;;;14.50;99.90;;;;;;5125499;27;20023;-68
2023/05/01 07:02:32;;;;;;;16.35;7.85;;;14.50;99.90;;;;;;5130309;27;20023;-68
2023/05/01 07:04:59;;;;;;;13.65;8.02;;;14.60;99.90;;;;;;5124941;27;20357;-69
2023/05/01 07:07:24;;;;;;;11.85;7.85;;;14.70;99.90;;;;;;5112950;28;20038;-68
2023/05/01 07:09:50;;;;;;;15.18;8.10;;;14.90;99.90;;;;;;5127164;27;20023;-68
2023/05/01 07:12:16;;;;;;;11.23;6.50;;;15.00;99.90;;;;;;5133346;27;20043;-68
2023/05/01 07:14:42;;;;;;;9.25;6.72;;;15.00;99.90;;;;;;5131233;27;20130;-71
2023/05/01 07:17:08;;;;;;;8.85;7.20;;;15.10;99.90;;;;;;5132122;27;20494;-71
2023/05/01 07:19:34;;;;;;;9.45;7.30;;;15.10;99.90;;;;;;5132546;27;20019;-71
2023/05/01 07:22:00;;;;;;;11.48;6.75;;;14.90;99.90;;;;;;5133247;27;20404;-71
2023/05/01 07:24:25;;;;;;;8.68;6.60;;;15.10;99.90;;;;;;5132670;27;20016;-71
2023/05/01 07:26:51;;;;;;;11.95;7.93;;;15.20;99.90;;;;;;5132621;27;20031;-71
2023/05/01 07:29:17;;;;;;;8.00;6.18;;;15.30;99.90;;;;;;5133829;27;20040;-71
2023/05/01 07:31:43;;;;;;;7.75;7.00;;;15.30;99.90;;;;;;5133630;27;20031;-71
2023/05/01 07:34:09;;;;;;;10.15;6.88;;;15.40;99.90;;;;;;5129255;27;20031;-71
2023/05/01 07:36:34;;;;;;;11.20;6.82;;;15.50;99.90;;;;;;5131356;27;20023;-72
2023/05/01 07:39:00;;;;;;;10.85;7.53;;;15.60;99.90;;;;;;5131944;27;20030;-71
2023/05/01 07:41:26;;;;;;;13.40;7.90;;;15.70;99.90;;;;;;5132011;27;20027;-71
2023/05/01 07:43:52;;;;;;;10.68;8.05;;;15.80;99.90;;;;;;5133455;27;20066;-71
2023/05/01 07:46:17;;;;;;;13.48;6.78;;;15.80;99.90;;;;;;5133769;27;20072;-71
2023/05/01 07:48:43;;;;;;;12.23;7.57;;;15.90;99.90;;;;;;5132770;27;20031;-71
2023/05/01 07:51:09;;;;;;;10.07;7.28;;;16.00;99.90;;;;;;5093707;27;20030;-71
2023/05/01 07:53:34;;;;;;;11.13;7.28;;;16.00;99.90;;;;;;5117349;27;20102;-70
2023/05/01 07:56:07;;;;;;;11.10;6.93;;;16.10;99.90;;;;;;5121137;27;20083;-71
2023/05/01 07:58:35;;;;;;;9.70;7.05;;;16.10;99.90;;;;;;5121257;27;20035;-70
2023/05/01 08:01:00;;;;;;;11.57;8.02;;;16.20;99.90;;;;;;5118241;27;20464;-71
2023/05/01 08:03:30;;;;;;;11.77;7.65;;;16.30;99.90;;;;;;5118194;28;20016;-71
2023/05/01 08:05:56;;;;;;;9.65;7.10;;;16.40;99.90;;;;;;5123247;27;20027;-71
2023/05/01 08:08:22;;;;;;;10.07;7.80;;;16.60;99.90;;;;;;5116745;27;20111;-71
2023/05/01 08:10:48;;;;;;;12.07;7.30;;;16.70;99.90;;;;;;5116812;27;20391;-71
2023/05/01 08:13:14;;;;;;;11.18;7.65;;;16.80;99.90;;;;;;5118978;27;20054;-70
2023/05/01 08:15:41;;;;;;;12.25;6.88;;;16.90;99.90;;;;;;5122074;28;20046;-71
2023/05/01 08:18:10;;;;;;;10.02;6.55;;;17.00;99.90;;;;;;5122201;27;20102;-71
2023/05/01 08:20:36;;;;;;;9.20;6.90;;;17.00;99.90;;;;;;5123830;27;20084;-70
2023/05/01 08:23:02;;;;;;;10.38;6.85;;;17.10;99.90;;;;;;5119286;28;20425;-70
2023/05/01 08:25:28;;;;;;;11.15;6.75;;;17.30;99.90;;;;;;5119358;27;20421;-70
2023/05/01 08:27:54;;;;;;;15.07;7.63;;;17.50;99.90;;;;;;5117816;28;20046;-70
2023/05/01 08:30:20;;;;;;;10.27;6.72;;;17.60;99.90;;;;;;5118568;27;20483;-71
2023/05/01 08:32:46;;;;;;;10.85;7.00;;;17.60;99.90;;;;;;5120215;27;20027;-70
2023/05/01 08:35:11;;;;;;;6.85;6.15;;;17.60;99.90;;;;;;5128827;27;20739;-70
2023/05/01 08:37:37;;;;;;;10.70;6.97;;;17.80;99.90;;;;;;5121208;27;20050;-71
2023/05/01 08:40:07;;;;;;;9.80;7.25;;;18.00;99.90;;;;;;5120287;27;20472;-71
2023/05/01 08:42:37;;;;;;;8.77;7.15;;;18.10;99.90;;;;;;5126744;27;20476;-72
2023/05/01 08:45:07;;;;;;;12.82;7.10;;;18.20;99.90;;;;;;5121854;27;20404;-71
2023/05/01 08:47:36;;;;;;;7.45;6.45;;;18.20;99.90;;;;;;5123139;27;20076;-71
2023/05/01 08:50:03;;;;;;;9.63;6.65;;;18.20;99.90;;;;;;5124832;27;20015;-70
2023/05/01 08:52:30;;;;;;;7.68;6.88;;;18.30;99.90;;;;;;5127689;27;20040;-70
2023/05/01 08:54:58;;;;;;;10.90;6.13;;;18.30;99.90;;;;;;5126499;27;20076;-71
2023/05/01 08:57:26;;;;;;;10.80;7.28;;;18.50;99.90;;;;;;5124420;27;20011;-71
2023/05/01 08:59:55;;;;;;;8.95;6.70;;;18.60;99.90;;;;;;5126873;27;20045;-70
2023/05/01 09:02:23;;;;;;;14.32;7.20;;;18.80;99.90;;;;;;5123233;27;20015;-71
2023/05/01 09:04:50;;;;;;;15.68;7.78;;;18.90;99.90;;;;;;5121252;27;20467;-71
2023/05/01 09:07:15;;;;;;;11.93;6.60;;;18.80;99.90;;;;;;5126000;27;20015;-70
2023/05/01 09:09:43;;;;;;;12.32;7.05;;;18.80;99.90;;;;;;5123129;27;20492;-70
2023/05/01 09:12:25;;;;;;;10.75;6.78;;;18.90;99.90;;;;;;5125368;27;20106;-70
2023/05/01 09:14:55;;;;;;;10.15;6.97;;;19.00;99.90;;;;;;5116071;27;20536;-70
2023/05/01 09:17:22;;;;;;;9.95;7.13;;;19.20;99.90;;;;;;5126583;27;20031;-70
2023/05/01 09:19:49;;;;;;;8.70;6.70;;;19.20;99.90;;;;;;5124679;27;20413;-70
2023/05/01 09:22:17;;;;;;;10.27;6.43;;;19.20;99.90;;;;;;5121914;27;20030;-70
2023/05/01 09:24:43;;;;;;;8.63;6.20;;;19.20;99.90;;;;;;5127810;27;20037;-70
2023/05/01 09:27:12;;;;;;;7.82;5.63;;;19.20;99.90;;;;;;5120693;27;20027;-70
2023/05/01 09:29:38;;;;;;;9.00;6.18;;;19.40;99.90;;;;;;5119790;27;20019;-71
2023/05/01 09:32:19;;;;;;;11.93;7.20;;;19.40;99.90;;;;;;5119445;27;20035;-71
2023/05/01 09:34:46;;;;;;;9.43;6.63;;;19.40;99.90;;;;;;5121726;27;20432;-71
2023/05/01 09:37:30;;;;;;;9.90;6.35;;;19.50;99.90;;;;;;5126051;27;20023;-71
2023/05/01 09:40:12;;;;;;;8.55;6.60;;;19.70;99.90;;;;;;5122880;27;20049;-71
2023/05/01 09:42:40;;;;;;;9.13;6.57;;;19.80;99.90;;;;;;5116494;27;20020;-71
2023/05/01 09:45:15;;;;;;;8.38;6.65;;;19.90;99.90;;;;;;5123838;27;20038;-71
2023/05/01 09:47:42;;;;;;;9.25;6.70;;;19.80;99.90;;;;;;5122017;27;20038;-71
2023/05/01 09:50:08;;;;;;;10.88;6.90;;;19.80;99.90;;;;;;5125604;27;20019;-70
2023/05/01 09:52:35;;;;;;;11.68;7.70;;;19.80;99.90;;;;;;5125376;27;20031;-70
2023/05/01 09:55:17;;;;;;;10.25;7.05;;;19.90;99.90;;;;;;5120169;27;20038;-71
2023/05/01 09:57:45;;;;;;;10.05;7.10;;;20.10;99.90;;;;;;5124390;27;20490;-71
2023/05/01 10:00:13;;;;;;;11.73;7.07;;;20.20;99.90;;;;;;5124521;27;20019;-71
2023/05/01 10:02:43;;;;;;;9.95;6.38;;;20.30;99.90;;;;;;5117653;27;20646;-71
2023/05/01 10:05:10;;;;;;;8.00;6.03;;;20.40;99.90;;;;;;5119085;27;20515;-70
2023/05/01 10:07:36;;;;;;;5.97;5.10;;;20.70;99.90;;;;;;5120423;27;20027;-71
2023/05/01 10:10:22;;;;;;;6.60;5.65;;;20.70;99.90;;;;;;5127511;27;20019;-71
2023/05/01 10:12:48;;;;;;;6.28;5.43;;;20.80;99.90;;;;;;5122424;27;20043;-70
2023/05/01 10:15:15;;;;;;;9.45;5.80;;;20.90;99.90;;;;;;5124805;27;20027;-70
2023/05/01 10:17:42;;;;;;;7.80;5.30;;;21.20;99.90;;;;;;5121629;27;20029;-70
2023/05/01 10:20:12;;;;;;;10.63;5.10;;;21.50;99.90;;;;;;5124009;27;20080;-70
2023/05/01 10:22:38;;;;;;;9.45;5.68;;;21.70;99.90;;;;;;5122509;27;20484;-70
2023/05/01 10:25:10;;;;;;;6.60;4.80;;;21.80;99.90;;;;;;5122601;27;20048;-70
2023/05/01 10:27:37;;;;;;;6.38;5.68;;;21.80;99.90;;;;;;5126381;27;20023;-70
2023/05/01 10:30:04;;;;;;;7.45;5.55;;;21.90;99.90;;;;;;5123575;27;20027;-70
2023/05/01 10:32:31;;;;;;;11.75;5.25;;;21.80;99.90;;;;;;5123955;27;20468;-70
2023/05/01 10:35:01;;;;;;;8.85;6.03;;;21.80;99.90;;;;;;5116382;27;20037;-70
2023/05/01 10:37:37;;;;;;;7.25;6.55;;;21.70;99.90;;;;;;5118773;27;20360;-70
2023/05/01 10:40:42;;;;;;;9.05;6.65;;;21.70;99.90;;;;;;5122322;27;20023;-71
2023/05/01 10:43:29;;;;;;;7.10;5.47;;;21.60;99.90;;;;;;5124088;27;20368;-70
2023/05/01 10:46:17;;;;;;;7.70;5.85;;;21.60;99.90;;;;;;5120371;27;20023;-70
2023/05/01 10:48:43;;;;;;;9.60;6.97;;;21.60;99.90;;;;;;5120411;27;20099;-70
2023/05/01 10:51:19;;;;;;;9.02;7.93;;;21.50;99.90;;;;;;5124870;27;20086;-70
2023/05/01 10:53:48;;;;;;;9.90;8.02;;;21.50;99.90;;;;;;5119382;27;20058;-70
2023/05/01 10:56:32;;;;;;;15.40;9.65;;;21.40;99.90;;;;;;5121677;27;20019;-70
2023/05/01 10:59:03;;;;;;;12.77;7.95;;;21.30;99.90;;;;;;5124660;27;20023;-71
2023/05/01 11:01:41;;;;;;;8.65;7.78;;;21.20;99.90;;;;;;5120171;27;20030;-71
2023/05/01 11:04:27;;;;;;;10.85;7.38;;;21.00;99.90;;;;;;5114910;27;20766;-71
2023/05/01 11:07:03;;;;;;;15.27;8.45;;;20.80;99.90;;;;;;5123856;27;20016;-71
2023/05/01 11:09:43;;;;;;;11.52;8.82;;;20.60;99.90;;;;;;5122109;27;20434;-70
2023/05/01 11:12:10;;;;;;;12.52;8.48;;;20.60;99.90;;;;;;5124129;27;20030;-70
2023/05/01 11:15:02;;;;;;;9.93;8.07;;;20.50;99.90;;;;;;5120542;27;20080;-70
2023/05/01 11:17:40;;;;;;;11.38;9.55;;;20.50;99.90;;;;;;5116584;27;20054;-70
2023/05/01 11:20:32;;;;;;;15.60;8.88;;;20.40;99.90;;;;;;5120620;27;20046;-70
2023/05/01 11:22:58;;;;;;;11.85;8.07;;;20.50;99.90;;;;;;5123138;27;20033;-70
2023/05/01 11:25:26;;;;;;;11.38;8.73;;;20.50;99.90;;;;;;5118940;27;20075;-69
2023/05/01 11:27:57;;;;;;;13.60;8.57;;;20.60;99.90;;;;;;5121373;27;20054;-70
2023/05/01 11:30:23;;;;;;;11.10;8.38;;;20.60;99.90;;;;;;5122700;27;20035;-70
2023/05/01 11:32:50;;;;;;;10.57;8.38;;;20.70;99.90;;;;;;5119816;27;20027;-70
2023/05/01 11:35:20;;;;;;;12.25;9.40;;;20.80;99.90;;;;;;5125141;27;20031;-70
2023/05/01 11:37:47;;;;;;;11.40;8.70;;;20.80;99.90;;;;;;5119710;27;20018;-70
2023/05/01 11:40:22;;;;;;;11.63;9.43;;;21.00;99.90;;;;;;5115696;27;20027;-70
2023/05/01 11:42:49;;;;;;;11.43;9.60;;;20.90;99.90;;;;;;5120236;27;20027;-70
2023/05/01 11:45:15;;;;;;;10.77;8.00;;;21.10;99.90;;;;;;5121652;27;20050;-72
2023/05/01 11:47:41;;;;;;;9.68;8.68;;;21.20;99.90;;;;;;5120702;27;20028;-70
2023/05/01 11:50:09;;;;;;;17.38;9.20;;;21.40;99.90;;;;;;5121172;27;20019;-73
2023/05/01 11:52:45;;;;;;;11.10;8.45;;;21.50;99.90;;;;;;5122530;27;20118;-70
2023/05/01 11:55:11;;;;;;;12.20;8.10;;;21.60;99.90;;;;;;5118336;27;20035;-72
2023/05/01 11:57:49;;;;;;;11.30;8.02;;;21.70;99.90;;;;;;5123920;27;20387;-70
2023/05/01 12:00:25;;;;;;;12.05;7.95;;;21.80;99.90;;;;;;5121422;27;20105;-71
2023/05/01 12:03:08;;;;;;;9.40;6.50;;;21.90;99.90;;;;;;5123237;27;20562;-70
2023/05/01 12:05:36;;;;;;;8.45;6.20;;;21.80;99.90;;;;;;5119119;27;20024;-71
2023/05/01 12:08:12;;;;;;;8.32;6.05;;;21.60;99.90;;;;;;5125673;27;20030;-72
2023/05/01 12:10:42;;;;;;;8.25;6.60;;;21.50;99.90;;;;;;5124953;27;20023;-71
2023/05/01 12:13:13;;;;;;;8.55;6.30;;;21.50;99.90;;;;;;5122839;27;20429;-70
2023/05/01 12:15:44;;;;;;;7.13;6.30;;;21.40;99.90;;;;;;5123902;27;20019;-70
2023/05/01 12:18:11;;;;;;;8.43;7.00;;;21.70;99.90;;;;;;5124262;27;20022;-70
2023/05/01 12:20:42;;;;;;;9.40;7.97;;;21.80;99.90;;;;;;5124645;27;20032;-70
2023/05/01 12:23:11;;;;;;;9.82;7.30;;;22.10;99.90;;;;;;5128003;27;20537;-71
2023/05/01 12:25:38;;;;;;;10.82;7.45;;;22.40;99.90;;;;;;5126936;27;20023;-70
2023/05/01 12:28:18;;;;;;;9.93;6.82;;;22.60;99.90;;;;;;5126909;27;20011;-70
2023/05/01 12:30:46;;;;;;;7.25;6.50;;;22.50;99.90;;;;;;5125117;27;20042;-71
2023/05/01 12:33:15;;;;;;;7.68;6.90;;;22.30;99.90;;;;;;5122506;27;20034;-72
2023/05/01 12:35:46;;;;;;;10.80;7.88;;;22.00;99.90;;;;;;5121550;27;20081;-71
2023/05/01 12:38:22;;;;;;;9.70;7.47;;;21.80;99.90;;;;;;5127389;27;20203;-70
2023/05/01 12:40:56;;;;;;;11.60;7.18;;;21.70;99.90;;;;;;5126118;27;20471;-70
2023/05/01 12:43:34;;;;;;;11.43;8.68;;;21.50;99.90;;;;;;5121684;27;20492;-70
2023/05/01 12:46:01;;;;;;;10.30;7.95;;;21.50;99.90;;;;;;5122508;27;20072;-70
2023/05/01 12:48:27;;;;;;;11.63;8.52;;;21.40;99.90;;;;;;5121955;27;20100;-70
2023/05/01 12:50:53;;;;;;;15.50;9.90;;;21.40;99.90;;;;;;5122037;27;20050;-70